<?xml version="1.0" encoding="UTF-8" standalone="no" ?><gpx xmlns="http://www.topografix.com/GPX/1/1" xmlns:gpxx="http://www.garmin.com/xmlschemas/WaypointExtension/v1" xmlns:gpxtrx="http://www.garmin.com/xmlschemas/GpxExtensions/v3" xmlns:gpxtpx="http://www.garmin.com/xmlschemas/TrackPointExtension/v1" creator="GPSMAP 62st" version="1.1" xmlns:xsi="http://www.w3.org/2001/XMLSchema-instance" xsi:schemaLocation="http://www.topografix.com/GPX/1/1 http://www.topografix.com/GPX/1/1/gpx.xsd http://www.garmin.com/xmlschemas/WaypointExtension/v1 http://www8.garmin.com/xmlschemas/WaypointExtensionv1.xsd http://www.garmin.com/xmlschemas/TrackPointExtension/v1 http://www.garmin.com/xmlschemas/TrackPointExtensionv1.xsd"><metadata><link href="http://www.garmin.com"><text>Garmin International</text></link><time>2011-04-16T12:49:38Z</time></metadata><trk><name>Aktueller Track: 16 APR 2011 14:38</name><extensions><gpxtrx:TrackExtension><gpxtrx:DisplayColor>Cyan</gpxtrx:DisplayColor></gpxtrx:TrackExtension></extensions><trkseg><trkpt lat="50.816467" lon="7.035915"><ele>52.05</ele><time>2011-04-16T12:38:32Z</time></trkpt><trkpt lat="50.816467" lon="7.035915"><ele>52.53</ele><time>2011-04-16T12:39:02Z</time></trkpt><trkpt lat="50.816456" lon="7.035917"><ele>53.01</ele><time>2011-04-16T12:39:32Z</time></trkpt><trkpt lat="50.816456" lon="7.035917"><ele>52.53</ele><time>2011-04-16T12:40:02Z</time></trkpt><trkpt lat="50.816425" lon="7.035945"><ele>53.01</ele><time>2011-04-16T12:40:32Z</time></trkpt><trkpt lat="50.816448" lon="7.035922"><ele>53.01</ele><time>2011-04-16T12:41:02Z</time></trkpt><trkpt lat="50.816460" lon="7.035983"><ele>53.49</ele><time>2011-04-16T12:41:32Z</time></trkpt><trkpt lat="50.816456" lon="7.035980"><ele>53.49</ele><time>2011-04-16T12:42:02Z</time></trkpt><trkpt lat="50.816483" lon="7.035893"><ele>52.53</ele><time>2011-04-16T12:42:32Z</time></trkpt><trkpt lat="50.816647" lon="7.036257"><ele>53.01</ele><time>2011-04-16T12:43:02Z</time></trkpt><trkpt lat="50.816807" lon="7.036583"><ele>53.97</ele><time>2011-04-16T12:43:32Z</time></trkpt><trkpt lat="50.816719" lon="7.036860"><ele>53.97</ele><time>2011-04-16T12:44:02Z</time></trkpt><trkpt lat="50.816490" lon="7.036818"><ele>54.45</ele><time>2011-04-16T12:44:32Z</time></trkpt><trkpt lat="50.816769" lon="7.036818"><ele>53.01</ele><time>2011-04-16T12:45:02Z</time></trkpt><trkpt lat="50.816750" lon="7.036471"><ele>53.49</ele><time>2011-04-16T12:45:32Z</time></trkpt><trkpt lat="50.816570" lon="7.036145"><ele>53.01</ele><time>2011-04-16T12:46:02Z</time></trkpt><trkpt lat="50.816441" lon="7.035917"><ele>53.49</ele><time>2011-04-16T12:46:32Z</time></trkpt><trkpt lat="50.816391" lon="7.035937"><ele>53.97</ele><time>2011-04-16T12:47:02Z</time></trkpt><trkpt lat="50.816395" lon="7.035926"><ele>53.97</ele><time>2011-04-16T12:47:32Z</time></trkpt><trkpt lat="50.816395" lon="7.035928"><ele>53.49</ele><time>2011-04-16T12:47:56Z</time></trkpt></trkseg></trk></gpx>